Time;durP1;ratioP1;P1;durP2;ratioP2;P2;SDS_P1;SDS_P2;PMS_P1;PMS_P2;Temp;Humidity;BMP_temperature;BMP_pressure;BME280_temperature;BME280_humidity;BME280_pressure;Samples;Min_cycle;Max_cycle;Signal;HPM_P1;HPM_P2
2021/08/07 00:00:42;;;;;;;3.55;2.03;;;;;;;;;;5039777;28;20148;-62
2021/08/07 00:03:07;;;;;;;7.28;1.85;;;;;;;;;;5035835;28;20495;-62
2021/08/07 00:05:32;;;;;;;3.90;1.80;;;;;;;;;;5041677;28;20082;-62
2021/08/07 00:07:58;;;;;;;6.38;2.08;;;;;;;;;;5046034;28;20036;-62
2021/08/07 00:10:24;;;;;;;3.50;1.70;;;;;;;;;;5038915;28;20064;-62
2021/08/07 00:12:50;;;;;;;3.20;1.58;;;;;;;;;;5042488;28;20021;-62
2021/08/07 00:15:15;;;;;;;3.40;1.90;;;;;;;;;;5044613;28;20170;-62
2021/08/07 00:17:41;;;;;;;3.80;2.10;;;;;;;;;;5039749;28;20122;-61
2021/08/07 00:20:08;;;;;;;3.47;2.10;;;;;;;;;;5036359;28;20028;-62
2021/08/07 00:22:34;;;;;;;3.65;1.63;;;;;;;;;;5042617;28;20041;-62
2021/08/07 00:24:59;;;;;;;5.15;2.20;;;;;;;;;;5043334;28;20041;-62
2021/08/07 00:27:25;;;;;;;5.45;2.10;;;;;;;;;;5031964;28;20021;-62
2021/08/07 00:29:50;;;;;;;3.13;1.80;;;;;;;;;;5042304;28;20029;-62
2021/08/07 00:32:16;;;;;;;3.83;1.73;;;;;;;;;;5039083;28;20052;-62
2021/08/07 00:34:41;;;;;;;6.32;1.80;;;;;;;;;;5042163;28;20025;-63
2021/08/07 00:37:08;;;;;;;3.17;1.77;;;;;;;;;;5043422;28;20134;-62
2021/08/07 00:39:34;;;;;;;4.65;2.10;;;;;;;;;;5038600;28;20112;-62
2021/08/07 00:42:00;;;;;;;2.78;1.75;;;;;;;;;;5045282;28;20032;-62
2021/08/07 00:44:26;;;;;;;5.50;2.25;;;;;;;;;;5041687;28;20041;-62
2021/08/07 00:46:51;;;;;;;3.35;2.20;;;;;;;;;;5041141;28;20028;-62
2021/08/07 00:49:17;;;;;;;4.32;2.00;;;;;;;;;;5047352;28;20052;-62
2021/08/07 00:51:43;;;;;;;4.25;2.53;;;;;;;;;;5045778;28;20021;-62
2021/08/07 00:54:09;;;;;;;5.25;2.80;;;;;;;;;;5046811;28;20029;-62
2021/08/07 00:56:34;;;;;;;4.05;2.45;;;;;;;;;;5046854;28;20488;-62
2021/08/07 00:59:00;;;;;;;5.80;2.30;;;;;;;;;;5042938;28;20641;-62
2021/08/07 01:01:32;;;;;;;3.92;2.10;;;;;;;;;;5041388;28;20464;-63
2021/08/07 01:03:58;;;;;;;3.03;2.00;;;;;;;;;;5045389;28;20510;-63
2021/08/07 01:06:51;;;;;;;5.95;2.17;;;;;;;;;;5044489;28;20371;-62
2021/08/07 01:09:50;;;;;;;4.80;2.05;;;;;;;;;;5040296;28;20028;-62
2021/08/07 01:12:27;;;;;;;5.55;2.20;;;;;;;;;;5040940;28;20162;-62
2021/08/07 01:14:55;;;;;;;4.70;1.80;;;;;;;;;;5044398;28;20337;-62
2021/08/07 01:17:27;;;;;;;3.78;2.20;;;;;;;;;;5040995;28;20028;-62
2021/08/07 01:20:02;;;;;;;4.15;2.00;;;;;;;;;;5043655;28;20029;-62
2021/08/07 01:22:35;;;;;;;6.18;1.98;;;;;;;;;;5045985;28;20398;-62
2021/08/07 01:25:07;;;;;;;2.72;2.00;;;;;;;;;;5047076;28;20076;-62
2021/08/07 01:27:36;;;;;;;4.85;1.67;;;;;;;;;;5042215;28;20024;-62
2021/08/07 01:30:04;;;;;;;3.33;2.28;;;;;;;;;;5037740;28;20139;-62
2021/08/07 01:32:32;;;;;;;4.45;1.60;;;;;;;;;;5043534;28;20056;-62
2021/08/07 01:34:59;;;;;;;3.75;2.13;;;;;;;;;;5045390;28;20028;-62
2021/08/07 01:37:26;;;;;;;4.18;1.88;;;;;;;;;;5045076;28;20039;-62
2021/08/07 01:39:53;;;;;;;4.45;1.80;;;;;;;;;;5043438;28;20024;-62
2021/08/07 01:42:20;;;;;;;3.70;1.95;;;;;;;;;;5043881;28;20539;-62
2021/08/07 01:44:45;;;;;;;5.30;1.60;;;;;;;;;;5042797;28;20510;-62
2021/08/07 01:47:37;;;;;;;2.03;1.60;;;;;;;;;;5045079;28;20054;-62
2021/08/07 01:50:22;;;;;;;3.13;1.90;;;;;;;;;;5045650;28;20095;-62
2021/08/07 01:52:49;;;;;;;2.38;1.75;;;;;;;;;;5043530;28;20026;-62
2021/08/07 01:55:24;;;;;;;3.78;2.10;;;;;;;;;;5045408;28;20025;-62
2021/08/07 01:58:11;;;;;;;3.00;1.70;;;;;;;;;;5043483;28;20025;-62
2021/08/07 02:00:40;;;;;;;2.22;1.73;;;;;;;;;;5042874;28;20032;-62
2021/08/07 02:03:08;;;;;;;3.67;1.70;;;;;;;;;;5033478;28;20506;-62
2021/08/07 02:05:35;;;;;;;3.70;1.70;;;;;;;;;;5037584;28;20525;-62
2021/08/07 02:08:01;;;;;;;5.47;1.55;;;;;;;;;;5043098;28;20044;-62
2021/08/07 02:10:28;;;;;;;2.97;1.83;;;;;;;;;;5047328;28;20028;-62
2021/08/07 02:12:54;;;;;;;3.00;1.70;;;;;;;;;;5046589;28;20033;-62
2021/08/07 02:15:21;;;;;;;2.70;1.80;;;;;;;;;;5043926;28;20028;-62
2021/08/07 02:17:48;;;;;;;4.15;1.70;;;;;;;;;;5039359;28;20039;-62
2021/08/07 02:20:15;;;;;;;3.05;1.77;;;;;;;;;;5041511;28;20087;-62
2021/08/07 02:22:43;;;;;;;5.00;2.05;;;;;;;;;;5043327;28;20112;-62
2021/08/07 02:25:10;;;;;;;2.88;1.63;;;;;;;;;;5042789;28;20029;-62
2021/08/07 02:27:36;;;;;;;2.55;1.60;;;;;;;;;;5043363;28;20305;-62
2021/08/07 02:30:03;;;;;;;2.63;1.73;;;;;;;;;;5042267;28;20565;-62
2021/08/07 02:32:29;;;;;;;3.05;1.90;;;;;;;;;;5038053;28;20055;-62
2021/08/07 02:34:55;;;;;;;3.03;1.80;;;;;;;;;;5045992;28;20020;-62
2021/08/07 02:37:20;;;;;;;3.97;1.77;;;;;;;;;;5043422;28;20036;-61
2021/08/07 02:39:46;;;;;;;6.68;1.70;;;;;;;;;;5044140;28;20035;-62
2021/08/07 02:42:12;;;;;;;4.90;2.00;;;;;;;;;;5046036;28;20101;-62
2021/08/07 02:44:39;;;;;;;3.80;1.50;;;;;;;;;;5041403;28;20037;-62
2021/08/07 02:47:04;;;;;;;4.75;1.75;;;;;;;;;;5043598;28;20025;-62
2021/08/07 02:49:30;;;;;;;4.53;1.70;;;;;;;;;;5045881;28;20531;-62
2021/08/07 02:51:55;;;;;;;1.88;1.48;;;;;;;;;;5041042;28;20104;-61
2021/08/07 02:54:22;;;;;;;2.53;1.45;;;;;;;;;;5034084;28;20041;-62
2021/08/07 02:56:47;;;;;;;4.18;1.73;;;;;;;;;;5039902;28;20476;-62
2021/08/07 02:59:13;;;;;;;2.22;1.65;;;;;;;;;;5040795;28;20116;-62
2021/08/07 03:01:39;;;;;;;2.45;1.70;;;;;;;;;;5043199;28;20021;-62
2021/08/07 03:04:04;;;;;;;5.57;1.90;;;;;;;;;;5042659;28;20033;-62
2021/08/07 03:06:29;;;;;;;3.90;1.60;;;;;;;;;;5039175;28;20053;-62
2021/08/07 03:08:56;;;;;;;3.20;1.55;;;;;;;;;;5042331;28;20036;-62
2021/08/07 03:11:21;;;;;;;3.83;1.48;;;;;;;;;;5041375;28;20388;-62
2021/08/07 03:13:46;;;;;;;5.70;1.60;;;;;;;;;;5044162;28;20021;-62
2021/08/07 03:16:12;;;;;;;4.88;2.30;;;;;;;;;;5037755;28;20419;-62
2021/08/07 03:18:37;;;;;;;3.38;1.55;;;;;;;;;;5043393;28;20121;-62
2021/08/07 03:21:03;;;;;;;3.53;2.20;;;;;;;;;;5040753;28;20029;-62
2021/08/07 03:23:29;;;;;;;5.50;1.88;;;;;;;;;;5038781;28;20067;-62
2021/08/07 03:25:54;;;;;;;4.50;2.08;;;;;;;;;;5042722;28;20057;-62
2021/08/07 03:28:20;;;;;;;3.33;1.80;;;;;;;;;;5042908;28;20028;-62
2021/08/07 03:30:45;;;;;;;3.22;1.67;;;;;;;;;;5043388;28;20028;-62
2021/08/07 03:33:11;;;;;;;2.53;1.90;;;;;;;;;;5042303;28;20395;-62
2021/08/07 03:35:36;;;;;;;3.13;1.98;;;;;;;;;;5042339;28;20026;-62
2021/08/07 03:38:02;;;;;;;4.75;1.92;;;;;;;;;;5044790;28;20045;-62
2021/08/07 03:40:27;;;;;;;4.15;2.20;;;;;;;;;;5039644;28;20025;-62
2021/08/07 03:42:53;;;;;;;5.63;2.30;;;;;;;;;;5042960;28;20408;-62
2021/08/07 03:45:18;;;;;;;5.38;2.30;;;;;;;;;;5037805;28;20032;-62
2021/08/07 03:47:51;;;;;;;2.22;2.03;;;;;;;;;;5043727;28;20035;-62
2021/08/07 03:50:18;;;;;;;3.97;2.30;;;;;;;;;;5043863;28;20026;-62
2021/08/07 03:52:44;;;;;;;3.42;2.00;;;;;;;;;;5040154;28;20025;-62
2021/08/07 03:55:10;;;;;;;3.58;1.98;;;;;;;;;;5040241;28;20128;-63
2021/08/07 03:57:57;;;;;;;5.40;1.98;;;;;;;;;;5042705;28;20108;-62
2021/08/07 04:00:27;;;;;;;4.35;2.30;;;;;;;;;;5041053;28;20048;-62
2021/08/07 04:02:53;;;;;;;8.88;2.17;;;;;;;;;;5040958;28;20476;-62
2021/08/07 04:05:18;;;;;;;3.53;2.40;;;;;;;;;;5039522;28;20033;-62
2021/08/07 04:07:45;;;;;;;3.30;2.33;;;;;;;;;;5042605;28;20029;-62
2021/08/07 04:10:10;;;;;;;5.35;2.70;;;;;;;;;;5040848;28;20036;-62
2021/08/07 04:12:37;;;;;;;3.38;2.10;;;;;;;;;;5036435;28;20479;-63
2021/08/07 04:15:04;;;;;;;6.35;2.70;;;;;;;;;;5037994;28;20341;-62
2021/08/07 04:17:29;;;;;;;3.83;2.20;;;;;;;;;;5043238;28;20033;-62
2021/08/07 04:19:55;;;;;;;3.17;2.20;;;;;;;;;;5042081;28;20024;-63
2021/08/07 04:22:20;;;;;;;7.53;2.63;;;;;;;;;;5040569;28;20029;-62
2021/08/07 04:24:46;;;;;;;4.78;2.60;;;;;;;;;;5045732;28;20025;-62
2021/08/07 04:27:12;;;;;;;3.63;3.05;;;;;;;;;;5047575;28;20039;-62
2021/08/07 04:29:38;;;;;;;6.50;2.58;;;;;;;;;;5047415;28;20027;-62
2021/08/07 04:32:03;;;;;;;8.25;3.03;;;;;;;;;;5041516;28;20029;-62
2021/08/07 04:34:29;;;;;;;6.47;2.60;;;;;;;;;;5044499;28;20021;-62
2021/08/07 04:36:54;;;;;;;4.38;2.72;;;;;;;;;;5047210;28;20021;-62
2021/08/07 04:39:19;;;;;;;5.47;2.00;;;;;;;;;;5047265;28;20029;-62
2021/08/07 04:41:45;;;;;;;2.72;2.00;;;;;;;;;;5041242;28;20024;-62
2021/08/07 04:44:10;;;;;;;5.55;1.80;;;;;;;;;;5043483;28;20415;-62
2021/08/07 04:46:36;;;;;;;2.00;1.50;;;;;;;;;;5045646;28;20112;-61
2021/08/07 04:49:01;;;;;;;4.68;2.50;;;;;;;;;;5047082;28;20042;-62
2021/08/07 04:51:27;;;;;;;5.93;2.97;;;;;;;;;;5044470;28;20506;-62
2021/08/07 04:53:53;;;;;;;3.65;2.65;;;;;;;;;;5046614;28;20090;-62
2021/08/07 04:56:18;;;;;;;4.82;3.00;;;;;;;;;;5045279;28;20544;-63
2021/08/07 04:58:44;;;;;;;6.80;3.38;;;;;;;;;;5047574;28;20595;-62
2021/08/07 05:01:10;;;;;;;5.53;3.40;;;;;;;;;;5045404;28;20036;-62
2021/08/07 05:03:35;;;;;;;4.95;3.45;;;;;;;;;;5045869;28;20036;-61
2021/08/07 05:06:00;;;;;;;7.05;3.75;;;;;;;;;;5046454;28;20033;-62
2021/08/07 05:08:26;;;;;;;6.30;3.30;;;;;;;;;;5042436;28;20086;-61
2021/08/07 05:10:51;;;;;;;7.32;3.50;;;;;;;;;;5046429;28;20250;-61
2021/08/07 05:13:16;;;;;;;8.18;3.40;;;;;;;;;;5047044;28;20108;-60
2021/08/07 05:15:42;;;;;;;7.25;3.30;;;;;;;;;;5036674;28;20425;-61
2021/08/07 05:18:07;;;;;;;5.22;3.00;;;;;;;;;;5043027;28;20128;-60
2021/08/07 05:20:33;;;;;;;6.97;3.05;;;;;;;;;;5047634;28;20445;-61
2021/08/07 05:22:58;;;;;;;4.97;3.25;;;;;;;;;;5046994;28;20056;-60
2021/08/07 05:25:24;;;;;;;4.50;3.08;;;;;;;;;;5046236;28;20017;-60
2021/08/07 05:27:49;;;;;;;8.30;3.72;;;;;;;;;;5045427;28;20479;-61
2021/08/07 05:30:15;;;;;;;6.40;3.00;;;;;;;;;;5039239;28;20056;-60
2021/08/07 05:32:40;;;;;;;5.13;3.08;;;;;;;;;;5035747;28;20499;-60
2021/08/07 05:35:06;;;;;;;5.95;3.10;;;;;;;;;;5040490;28;20033;-61
2021/08/07 05:37:37;;;;;;;4.88;3.13;;;;;;;;;;5041059;28;20481;-61
2021/08/07 05:40:03;;;;;;;7.28;3.28;;;;;;;;;;5044553;28;20025;-60
2021/08/07 05:42:28;;;;;;;5.38;3.60;;;;;;;;;;5041959;28;20033;-60
2021/08/07 05:44:54;;;;;;;5.30;3.40;;;;;;;;;;5043129;28;20029;-61
2021/08/07 05:47:19;;;;;;;8.18;4.28;;;;;;;;;;5042747;28;20024;-61
2021/08/07 05:49:44;;;;;;;8.98;4.70;;;;;;;;;;5046469;28;20021;-61
2021/08/07 05:52:10;;;;;;;4.90;3.30;;;;;;;;;;5041943;28;20044;-61
2021/08/07 05:54:35;;;;;;;9.38;3.85;;;;;;;;;;5043395;28;20071;-61
2021/08/07 05:57:01;;;;;;;5.72;3.40;;;;;;;;;;5044300;28;20117;-61
2021/08/07 05:59:26;;;;;;;6.45;3.33;;;;;;;;;;5041909;28;20392;-61
2021/08/07 06:01:52;;;;;;;6.07;2.92;;;;;;;;;;5037593;28;20017;-61
2021/08/07 06:04:17;;;;;;;4.32;3.20;;;;;;;;;;5041707;28;20395;-61
2021/08/07 06:06:42;;;;;;;8.63;3.42;;;;;;;;;;5039468;28;20037;-60
2021/08/07 06:09:08;;;;;;;5.97;3.88;;;;;;;;;;5042381;28;20028;-61
2021/08/07 06:11:33;;;;;;;6.05;3.15;;;;;;;;;;5045226;28;20484;-61
2021/08/07 06:13:59;;;;;;;4.32;2.70;;;;;;;;;;5043441;28;20370;-60
2021/08/07 06:16:24;;;;;;;4.45;3.35;;;;;;;;;;5042775;28;20017;-60
2021/08/07 06:18:50;;;;;;;9.60;6.43;;;;;;;;;;5035510;28;20103;-61
2021/08/07 06:21:15;;;;;;;5.00;3.03;;;;;;;;;;5044134;28;20381;-61
2021/08/07 06:23:41;;;;;;;5.55;3.25;;;;;;;;;;5041878;28;20037;-61
2021/08/07 06:26:08;;;;;;;3.83;2.63;;;;;;;;;;5046363;28;20071;-61
2021/08/07 06:28:33;;;;;;;6.03;2.63;;;;;;;;;;5043478;28;20052;-61
2021/08/07 06:30:59;;;;;;;2.97;2.10;;;;;;;;;;5037552;28;20104;-60
2021/08/07 06:33:24;;;;;;;4.63;1.88;;;;;;;;;;5042362;28;20068;-61
2021/08/07 06:35:50;;;;;;;4.35;2.15;;;;;;;;;;5040543;28;20070;-61
2021/08/07 06:38:15;;;;;;;7.72;3.67;;;;;;;;;;5044892;28;20431;-61
2021/08/07 06:40:40;;;;;;;4.65;1.83;;;;;;;;;;5040481;28;20610;-60
2021/08/07 06:43:06;;;;;;;4.30;1.70;;;;;;;;;;5038337;28;20048;-61
2021/08/07 06:45:31;;;;;;;4.93;1.77;;;;;;;;;;5044301;28;20037;-61
2021/08/07 06:47:57;;;;;;;3.63;1.88;;;;;;;;;;5042446;28;20025;-61
2021/08/07 06:50:22;;;;;;;4.43;1.85;;;;;;;;;;5038735;28;20025;-59
2021/08/07 06:52:47;;;;;;;2.83;1.80;;;;;;;;;;5041656;28;20063;-61
2021/08/07 06:55:13;;;;;;;4.45;2.25;;;;;;;;;;5034763;28;20041;-61
2021/08/07 06:57:42;;;;;;;5.95;2.78;;;;;;;;;;5041558;28;20033;-61
2021/08/07 07:00:09;;;;;;;5.85;2.40;;;;;;;;;;5036718;28;20052;-61
2021/08/07 07:02:36;;;;;;;4.82;1.88;;;;;;;;;;5044457;28;20067;-60
2021/08/07 07:05:02;;;;;;;3.70;1.75;;;;;;;;;;5034472;28;20436;-60
2021/08/07 07:07:27;;;;;;;3.50;1.70;;;;;;;;;;5038797;28;20032;-60
2021/08/07 07:09:53;;;;;;;3.63;2.10;;;;;;;;;;5037898;28;20100;-60
2021/08/07 07:12:18;;;;;;;4.60;2.10;;;;;;;;;;5046060;28;20029;-60
2021/08/07 07:14:44;;;;;;;3.15;2.05;;;;;;;;;;5043753;28;20036;-61
2021/08/07 07:17:09;;;;;;;3.97;1.95;;;;;;;;;;5040220;28;20029;-61
2021/08/07 07:19:37;;;;;;;2.85;1.88;;;;;;;;;;5036748;28;20120;-61
2021/08/07 07:22:03;;;;;;;3.08;1.92;;;;;;;;;;5044731;28;20025;-61
2021/08/07 07:24:28;;;;;;;3.25;1.73;;;;;;;;;;5042436;28;20036;-61
2021/08/07 07:26:54;;;;;;;5.85;1.90;;;;;;;;;;5043212;28;20029;-60
2021/08/07 07:29:19;;;;;;;4.00;1.73;;;;;;;;;;5045530;28;20032;-60
2021/08/07 07:31:45;;;;;;;4.75;1.88;;;;;;;;;;5042761;28;20113;-60
2021/08/07 07:34:10;;;;;;;3.40;1.77;;;;;;;;;;5039804;28;20030;-60
2021/08/07 07:36:36;;;;;;;2.47;1.70;;;;;;;;;;5042288;28;20055;-60
2021/08/07 07:39:01;;;;;;;3.03;1.70;;;;;;;;;;5044396;28;20077;-61
2021/08/07 07:41:27;;;;;;;4.57;2.20;;;;;;;;;;5042865;28;20067;-61
2021/08/07 07:43:52;;;;;;;4.80;1.90;;;;;;;;;;5038889;28;20560;-60
2021/08/07 07:46:17;;;;;;;4.53;2.20;;;;;;;;;;5032411;28;20103;-61
2021/08/07 07:48:43;;;;;;;2.97;1.70;;;;;;;;;;5038513;28;20067;-61
2021/08/07 07:51:08;;;;;;;3.15;1.65;;;;;;;;;;5042780;28;20029;-59
2021/08/07 07:53:34;;;;;;;4.57;1.70;;;;;;;;;;5043224;28;20133;-59
2021/08/07 07:55:59;;;;;;;4.18;2.30;;;;;;;;;;5044310;28;20111;-58
2021/08/07 07:58:24;;;;;;;6.45;3.40;;;;;;;;;;5040309;28;20196;-59
2021/08/07 08:00:52;;;;;;;6.32;3.20;;;;;;;;;;5037467;28;20071;-58
2021/08/07 08:03:19;;;;;;;4.93;2.05;;;;;;;;;;5043124;28;20293;-58
2021/08/07 08:05:44;;;;;;;2.50;1.77;;;;;;;;;;5042551;28;20589;-59
2021/08/07 08:08:10;;;;;;;4.03;2.10;;;;;;;;;;5040489;28;20219;-60
2021/08/07 08:10:36;;;;;;;3.83;2.40;;;;;;;;;;5041412;28;20461;-60
2021/08/07 08:13:02;;;;;;;6.47;2.15;;;;;;;;;;5032916;28;20032;-60
2021/08/07 08:15:28;;;;;;;2.35;1.70;;;;;;;;;;5042054;28;20023;-60
2021/08/07 08:17:53;;;;;;;5.43;1.83;;;;;;;;;;5036634;28;20020;-60
2021/08/07 08:20:19;;;;;;;3.72;2.00;;;;;;;;;;5043755;28;20030;-60
2021/08/07 08:22:44;;;;;;;4.57;1.90;;;;;;;;;;5037982;28;20060;-58
2021/08/07 08:25:11;;;;;;;6.07;2.50;;;;;;;;;;5040692;28;20036;-57
2021/08/07 08:27:37;;;;;;;9.18;3.38;;;;;;;;;;5044376;28;20029;-59
2021/08/07 08:30:03;;;;;;;4.90;3.00;;;;;;;;;;5036880;28;20056;-58
2021/08/07 08:32:29;;;;;;;7.70;2.50;;;;;;;;;;5041444;28;20072;-60
2021/08/07 08:34:54;;;;;;;4.82;2.22;;;;;;;;;;5039058;28;20535;-59
2021/08/07 08:37:20;;;;;;;3.97;2.30;;;;;;;;;;5040151;28;20029;-58
2021/08/07 08:39:45;;;;;;;4.43;2.05;;;;;;;;;;5041530;28;20056;-59
2021/08/07 08:42:11;;;;;;;6.80;2.92;;;;;;;;;;5043305;28;20033;-60
2021/08/07 08:44:38;;;;;;;6.70;2.72;;;;;;;;;;5036223;28;20056;-59
2021/08/07 08:47:05;;;;;;;3.97;2.00;;;;;;;;;;5039831;28;20061;-59
2021/08/07 08:49:33;;;;;;;11.23;3.40;;;;;;;;;;5044792;28;20122;-58
2021/08/07 08:52:01;;;;;;;5.68;3.03;;;;;;;;;;5043799;28;20036;-58
2021/08/07 08:54:27;;;;;;;5.10;2.20;;;;;;;;;;5041511;28;20116;-59
2021/08/07 08:56:53;;;;;;;4.65;2.22;;;;;;;;;;5041770;28;20033;-60
2021/08/07 08:59:23;;;;;;;4.13;2.05;;;;;;;;;;5042910;28;20064;-58
2021/08/07 09:01:49;;;;;;;8.80;4.78;;;;;;;;;;5036257;28;20527;-58
2021/08/07 09:04:15;;;;;;;4.18;2.60;;;;;;;;;;5039967;28;20037;-59
2021/08/07 09:06:41;;;;;;;6.28;2.50;;;;;;;;;;5042233;28;20038;-58
2021/08/07 09:09:11;;;;;;;3.60;1.70;;;;;;;;;;5045572;28;20036;-58
2021/08/07 09:11:48;;;;;;;3.40;2.20;;;;;;;;;;5039640;28;20025;-59
2021/08/07 09:14:16;;;;;;;3.58;2.00;;;;;;;;;;5039342;28;20081;-59
2021/08/07 09:17:06;;;;;;;2.92;1.85;;;;;;;;;;5042624;28;20018;-59
2021/08/07 09:19:41;;;;;;;8.07;2.60;;;;;;;;;;5033059;28;20033;-59
2021/08/07 09:22:08;;;;;;;5.53;2.30;;;;;;;;;;5038151;28;20029;-59
2021/08/07 09:24:52;;;;;;;4.72;2.35;;;;;;;;;;5040635;28;20452;-59
2021/08/07 09:27:30;;;;;;;5.93;2.53;;;;;;;;;;5045785;28;20499;-60
2021/08/07 09:29:57;;;;;;;2.63;2.10;;;;;;;;;;5046356;28;20395;-60
2021/08/07 09:32:22;;;;;;;8.02;2.00;;;;;;;;;;5046882;28;20037;-59
2021/08/07 09:35:12;;;;;;;2.00;1.60;;;;;;;;;;5047361;28;20427;-60
2021/08/07 09:37:37;;;;;;;4.97;2.00;;;;;;;;;;5039923;28;20057;-59
2021/08/07 09:40:05;;;;;;;6.22;2.33;;;;;;;;;;5044661;28;20395;-58
2021/08/07 09:42:31;;;;;;;3.83;1.83;;;;;;;;;;5043406;28;20033;-59
2021/08/07 09:45:11;;;;;;;3.17;1.92;;;;;;;;;;5043097;28;20029;-58
2021/08/07 09:47:46;;;;;;;4.93;2.70;;;;;;;;;;5042274;28;20407;-58
2021/08/07 09:50:26;;;;;;;6.10;2.40;;;;;;;;;;5036074;28;20044;-59
2021/08/07 09:52:52;;;;;;;4.32;2.15;;;;;;;;;;5040955;28;20013;-58
2021/08/07 09:55:18;;;;;;;6.25;2.50;;;;;;;;;;5040218;28;20436;-58
2021/08/07 09:57:43;;;;;;;3.90;2.40;;;;;;;;;;5045090;28;20125;-58
2021/08/07 10:00:10;;;;;;;5.00;2.20;;;;;;;;;;5041386;28;20041;-58
2021/08/07 10:02:37;;;;;;;2.63;1.90;;;;;;;;;;5038815;28;20021;-60
2021/08/07 10:05:05;;;;;;;2.42;2.10;;;;;;;;;;5040937;28;20029;-60
2021/08/07 10:07:30;;;;;;;7.05;2.30;;;;;;;;;;5042224;28;20044;-60
2021/08/07 10:09:56;;;;;;;4.22;2.10;;;;;;;;;;5043346;28;20476;-58
2021/08/07 10:12:22;;;;;;;4.65;2.70;;;;;;;;;;5043152;28;20079;-58
2021/08/07 10:14:49;;;;;;;2.85;2.30;;;;;;;;;;5042925;28;20499;-58
2021/08/07 10:17:23;;;;;;;5.63;2.30;;;;;;;;;;5037780;28;20480;-58
2021/08/07 10:19:49;;;;;;;2.67;2.13;;;;;;;;;;5036934;28;20086;-60
2021/08/07 10:22:15;;;;;;;8.80;2.95;;;;;;;;;;5037342;28;20041;-59
2021/08/07 10:24:45;;;;;;;8.77;2.80;;;;;;;;;;5041310;28;20031;-59
2021/08/07 10:27:12;;;;;;;4.63;2.55;;;;;;;;;;5041335;28;20100;-58
2021/08/07 10:29:47;;;;;;;3.78;2.45;;;;;;;;;;5039410;28;20083;-58
2021/08/07 10:32:14;;;;;;;8.90;2.92;;;;;;;;;;5043564;28;20029;-60
2021/08/07 10:34:43;;;;;;;8.30;3.28;;;;;;;;;;5045943;28;20051;-60
2021/08/07 10:37:09;;;;;;;5.53;2.50;;;;;;;;;;5038873;28;20040;-60
2021/08/07 10:39:34;;;;;;;4.85;2.13;;;;;;;;;;5044697;28;20029;-60
2021/08/07 10:42:02;;;;;;;8.45;4.25;;;;;;;;;;5043924;28;20045;-60
2021/08/07 10:44:28;;;;;;;6.05;2.67;;;;;;;;;;5043040;28;20128;-60
2021/08/07 10:46:55;;;;;;;3.15;2.33;;;;;;;;;;5039904;28;20029;-60
2021/08/07 10:49:38;;;;;;;4.80;2.40;;;;;;;;;;5041916;28;20033;-59
2021/08/07 10:52:27;;;;;;;4.75;2.85;;;;;;;;;;5043435;28;20391;-59
2021/08/07 10:54:54;;;;;;;4.97;2.40;;;;;;;;;;5031955;28;20063;-60
2021/08/07 10:57:41;;;;;;;4.10;2.70;;;;;;;;;;5046377;28;20094;-60
2021/08/07 11:00:24;;;;;;;2.22;1.80;;;;;;;;;;5045923;28;20029;-60
2021/08/07 11:03:13;;;;;;;2.97;2.10;;;;;;;;;;5041794;28;20392;-60
2021/08/07 11:05:51;;;;;;;4.20;2.70;;;;;;;;;;5043681;28;20029;-57
2021/08/07 11:08:18;;;;;;;3.20;1.77;;;;;;;;;;5035887;28;20275;-58
2021/08/07 11:10:43;;;;;;;4.40;2.22;;;;;;;;;;5044321;28;20064;-59
2021/08/07 11:13:26;;;;;;;4.22;2.40;;;;;;;;;;5043458;28;20063;-58
2021/08/07 11:16:27;;;;;;;4.38;2.60;;;;;;;;;;5036198;28;20059;-59
2021/08/07 11:18:52;;;;;;;6.05;2.30;;;;;;;;;;5017488;28;20026;-58
2021/08/07 11:21:50;;;;;;;6.35;2.33;;;;;;;;;;5033936;28;20049;-58
2021/08/07 11:25:01;;;;;;;3.67;2.08;;;;;;;;;;5039800;28;20056;-60
2021/08/07 11:27:44;;;;;;;5.10;2.10;;;;;;;;;;5033249;28;20029;-59
2021/08/07 11:30:19;;;;;;;4.28;2.17;;;;;;;;;;5041272;28;20112;-59
2021/08/07 11:33:11;;;;;;;4.80;2.58;;;;;;;;;;5042281;28;20017;-59
2021/08/07 11:38:19;;;;;;;5.57;2.00;;;;;;;;;;5038630;28;20037;-58
2021/08/07 11:40:47;;;;;;;5.05;2.25;;;;;;;;;;5043648;28;20101;-60
2021/08/07 11:43:18;;;;;;;5.50;1.95;;;;;;;;;;5042677;28;20491;-62
2021/08/07 11:45:45;;;;;;;8.55;2.60;;;;;;;;;;5043861;28;20029;-60
2021/08/07 11:48:11;;;;;;;6.95;2.30;;;;;;;;;;5038808;28;20029;-61
2021/08/07 11:50:43;;;;;;;5.45;2.40;;;;;;;;;;5041435;28;20044;-61
2021/08/07 11:53:22;;;;;;;5.32;2.40;;;;;;;;;;5042330;28;20021;-60
2021/08/07 11:55:59;;;;;;;5.82;2.30;;;;;;;;;;5038688;28;20115;-59
2021/08/07 11:58:25;;;;;;;4.43;2.25;;;;;;;;;;5044100;28;20025;-59
2021/08/07 12:00:50;;;;;;;5.40;2.67;;;;;;;;;;5041643;28;20518;-59
2021/08/07 12:03:16;;;;;;;2.25;1.83;;;;;;;;;;5036077;28;20039;-59
2021/08/07 12:05:52;;;;;;;3.70;2.25;;;;;;;;;;5042343;28;20037;-59
2021/08/07 12:08:17;;;;;;;5.43;2.63;;;;;;;;;;5041741;28;20024;-59
2021/08/07 12:10:52;;;;;;;4.38;2.42;;;;;;;;;;5042389;28;20078;-60
2021/08/07 12:13:32;;;;;;;4.43;2.60;;;;;;;;;;5043670;28;20121;-60
2021/08/07 12:16:03;;;;;;;4.85;2.42;;;;;;;;;;5041202;28;20514;-59
2021/08/07 12:18:48;;;;;;;15.82;2.60;;;;;;;;;;5038294;28;20025;-59
2021/08/07 12:21:38;;;;;;;8.32;2.20;;;;;;;;;;5041828;28;20033;-60
2021/08/07 12:24:11;;;;;;;6.80;2.70;;;;;;;;;;5036949;28;20439;-59
2021/08/07 12:26:46;;;;;;;3.97;2.20;;;;;;;;;;5043952;28;20391;-59
2021/08/07 12:29:18;;;;;;;5.82;2.40;;;;;;;;;;5039575;28;20143;-60
2021/08/07 12:31:53;;;;;;;5.07;2.08;;;;;;;;;;5042823;28;20131;-61
2021/08/07 12:34:21;;;;;;;6.63;2.40;;;;;;;;;;5043648;28;20140;-60
2021/08/07 12:36:58;;;;;;;7.35;2.30;;;;;;;;;;5036908;28;20438;-60
2021/08/07 12:39:25;;;;;;;4.88;2.15;;;;;;;;;;5045303;28;20021;-60
2021/08/07 12:41:51;;;;;;;5.80;2.40;;;;;;;;;;5043730;28;20083;-60
2021/08/07 12:44:22;;;;;;;5.05;2.40;;;;;;;;;;5045152;28;20368;-59
2021/08/07 12:46:49;;;;;;;7.55;2.85;;;;;;;;;;5043323;28;20021;-60
2021/08/07 12:49:32;;;;;;;7.35;2.65;;;;;;;;;;5045463;28;20045;-59
2021/08/07 12:52:02;;;;;;;6.97;2.58;;;;;;;;;;5045927;28;20516;-59
2021/08/07 12:54:27;;;;;;;11.85;3.35;;;;;;;;;;5046680;28;20036;-59
2021/08/07 12:56:53;;;;;;;9.27;3.15;;;;;;;;;;5045172;28;20025;-59
2021/08/07 12:59:18;;;;;;;4.63;3.00;;;;;;;;;;5037899;28;20061;-64
2021/08/07 13:02:00;;;;;;;17.23;3.13;;;;;;;;;;5040369;28;20040;-59
2021/08/07 13:04:44;;;;;;;10.88;2.80;;;;;;;;;;5045523;28;20445;-59
2021/08/07 13:07:10;;;;;;;6.30;2.55;;;;;;;;;;5046051;28;20429;-59
2021/08/07 13:09:36;;;;;;;6.13;2.90;;;;;;;;;;5044635;28;20517;-59
2021/08/07 13:12:12;;;;;;;6.47;2.92;;;;;;;;;;5040786;28;20029;-59
2021/08/07 13:14:52;;;;;;;5.53;3.08;;;;;;;;;;5047116;28;20029;-59
2021/08/07 13:17:36;;;;;;;3.28;2.08;;;;;;;;;;5044101;28;20044;-59
2021/08/07 13:20:06;;;;;;;2.03;1.80;;;;;;;;;;5039226;28;20067;-60
2021/08/07 13:22:32;;;;;;;2.17;1.60;;;;;;;;;;5046085;28;20032;-59
2021/08/07 13:25:00;;;;;;;3.05;1.70;;;;;;;;;;5048458;28;20082;-61
2021/08/07 13:27:46;;;;;;;3.00;1.65;;;;;;;;;;5047348;28;20055;-62
2021/08/07 13:30:17;;;;;;;2.92;1.75;;;;;;;;;;5040824;28;20056;-61
2021/08/07 13:32:44;;;;;;;3.97;1.80;;;;;;;;;;5042569;28;20028;-60
2021/08/07 13:35:12;;;;;;;8.05;3.85;;;;;;;;;;5042833;28;20029;-61
2021/08/07 13:37:39;;;;;;;4.82;1.95;;;;;;;;;;5043595;28;20037;-60
2021/08/07 13:40:06;;;;;;;2.83;2.10;;;;;;;;;;5044932;28;20388;-60
2021/08/07 13:42:31;;;;;;;5.40;2.00;;;;;;;;;;5043160;28;20036;-61
2021/08/07 13:44:57;;;;;;;2.30;1.75;;;;;;;;;;5046586;28;20029;-60
2021/08/07 13:47:22;;;;;;;8.75;3.33;;;;;;;;;;5042881;28;20028;-60
2021/08/07 13:49:48;;;;;;;6.00;2.92;;;;;;;;;;5040970;28;20039;-60
2021/08/07 13:52:14;;;;;;;4.30;2.70;;;;;;;;;;5046177;28;20021;-59
2021/08/07 13:54:40;;;;;;;5.32;2.78;;;;;;;;;;5047355;28;20033;-61
2021/08/07 13:57:07;;;;;;;3.20;2.42;;;;;;;;;;5043303;28;20221;-60
2021/08/07 13:59:37;;;;;;;3.10;1.92;;;;;;;;;;5041221;28;20026;-61
2021/08/07 14:02:04;;;;;;;4.03;2.22;;;;;;;;;;5045040;28;20025;-61
2021/08/07 14:04:30;;;;;;;3.95;2.40;;;;;;;;;;5046492;28;20033;-63
2021/08/07 14:06:55;;;;;;;4.72;2.25;;;;;;;;;;5044071;28;20039;-60
2021/08/07 14:09:21;;;;;;;6.30;3.60;;;;;;;;;;5041099;28;20037;-60
2021/08/07 14:11:46;;;;;;;6.85;3.50;;;;;;;;;;5039755;28;20021;-62
2021/08/07 14:14:15;;;;;;;5.68;2.90;;;;;;;;;;5041017;28;20479;-61
2021/08/07 14:16:40;;;;;;;3.95;2.33;;;;;;;;;;5039616;28;20396;-61
2021/08/07 14:19:06;;;;;;;4.72;2.50;;;;;;;;;;5041220;28;20080;-60
2021/08/07 14:21:35;;;;;;;5.10;2.42;;;;;;;;;;5042206;28;20072;-61
2021/08/07 14:24:00;;;;;;;4.55;2.63;;;;;;;;;;5043037;28;20456;-62
2021/08/07 14:26:26;;;;;;;3.15;2.03;;;;;;;;;;5043637;28;20126;-61
2021/08/07 14:28:51;;;;;;;2.60;2.30;;;;;;;;;;5045952;28;20074;-61
2021/08/07 14:31:16;;;;;;;4.22;2.15;;;;;;;;;;5042999;28;20021;-61
2021/08/07 14:33:42;;;;;;;3.33;2.10;;;;;;;;;;5046672;28;20566;-61
2021/08/07 14:36:07;;;;;;;2.55;2.10;;;;;;;;;;5039393;28;20108;-61
2021/08/07 14:38:33;;;;;;;5.40;2.00;;;;;;;;;;5043501;28;20110;-61
2021/08/07 14:40:58;;;;;;;2.53;1.70;;;;;;;;;;5042829;28;20032;-61
2021/08/07 14:43:23;;;;;;;2.10;1.90;;;;;;;;;;5046735;28;20063;-60
2021/08/07 14:45:49;;;;;;;2.53;1.75;;;;;;;;;;5047105;28;20063;-61
2021/08/07 14:48:16;;;;;;;3.80;2.15;;;;;;;;;;5043742;28;20122;-60
2021/08/07 14:50:42;;;;;;;3.83;2.30;;;;;;;;;;5051102;28;20032;-62
2021/08/07 14:53:08;;;;;;;2.83;1.90;;;;;;;;;;5042993;28;20035;-60